Aeroporto :
LOGIN :

Iscrizione | Disclaimer

   EN    FR    IT 

 










Sommario :    VFR   VFR Marginale   IFR   IFR Intensivo   IFR Molto Intensivo
Visibilità : 
Base nubi : 
>= 8 km
>= 3000ft
5 / 8 km
1000 / 3000 ft
1500m / 5 km
500 / 1000 ft
800 / 1500m
200 / 500 ft
< 800m
< 200 ft
Simboli :   Temporali  Nebbia  Neve Forte  Precipitazioni Forti  Vento > 20 kt
SIGMETs :   Varie  Temporali  Ghiacco  Turbolenza  Onda orograficha  Ceneri Vulcaniche






- Altitudine del aeroporto : 844 ft
- Codice IATA : OSR


LKMT - Ostrava-Mosnov

ULTIMO METAR :
  • 261830Z 01011KT 9999 FEW029 12/08 Q1031 NOSIG

METARs OBSOLETI :
  • 261800Z 02009KT 9999 SCT027 13/08 Q1031 NOSIG
  • 261730Z 02011KT 9999 FEW027 13/08 Q1030 NOSIG
  • 261700Z 02010KT 9999 SCT025 13/09 Q1030 NOSIG
  • 261630Z 02012KT 9999 BKN025 13/09 Q1030 NOSIG
  • 261600Z 02008KT 340V050 9999 FEW030 14/09 Q1030 NOSIG

TAF TAF LKMT
Valido dal 26 a 18 ore il 28 a 00 ore UTC


261700Z 2618/2800 04006KT 9999 SCT030
TEMPO 2618/2706 SCT020TCU BKN030
PROB30
TEMPO 2618/2700 SHRA
TEMPO 2623/2705 07004KT
TEMPO 2711/2718 02015KT



MetMap, La meteo Aeronautica in un colpo d'occhio ! - Copyright ORBIFLY Dicembre 2007 - Disclaimer

ORBIFLY MET'MAP TEAM :

Programmazione e sviluppo : Alexandra Zaïnal
Concezione : Baudouin d'Aumeries
Aiuto per la programmazione : Marc-Olivier Méhu
Supporto tecnico e logistico : Manuel Goepfert
Aiuto per la traduzione : Arnaldo La Scala

Contatto : metmap@orbifly.com




FONTI E CREDITI :

   NOAA